Latest Weather Observations for Naracoorte

IDS60801

Issued at 8:02 am CDT Friday 19 December 2014 (issued every 30 minutes, with the page automatically refreshed every 10 minutes)

About weather observations | Map of weather stations | Latest weather observations for SA | Other Formats
Station Details ID: 026099 Name: NARACOORTE AERODROME Lat: -36.98 Lon: 140.73 Height: 49.72 m
Data from the previous 72 hours. | See also: Recent months at Naracoorte
Date/Time
CDT
Temp
°C
App
Temp
°C
Dew
Point
Rel
Hum
%
Delta-T
°C
Wind Press
QNH
hPa
Press
MSL
hPa
Rain
since 9 am
mm
Dir
 
Spd
km/h
Gust
km/h
Spd
kts
Gust
kts
19/08:00am 15.3 12.5 8.5 64 3.4 WSW 13 17 7 9 1018.9 1018.8 2.0
19/07:30am 13.0 11.5 9.3 78 1.9 WSW 7 9 4 5 1018.4 1018.2 2.0
19/07:00am 11.0 10.8 8.9 87 1.0 CALM 0 0 0 0 1018.1 1017.9 2.0
19/06:30am 9.6 9.1 7.7 88 0.9 CALM 0 0 0 0 1017.9 1017.7 2.0
19/06:00am 10.1 9.7 8.2 88 0.9 CALM 0 0 0 0 1017.5 1017.3 2.0
19/05:30am 9.9 9.5 8.2 89 0.8 CALM 0 0 0 0 1017.3 1017.1 2.0
19/05:00am 10.0 9.5 7.9 87 1.0 CALM 0 0 0 0 1017.1 1016.9 2.0
19/04:30am 10.0 9.4 7.4 84 1.2 CALM 0 0 0 0 1016.9 1016.7 2.0
19/04:00am 10.7 10.3 8.1 84 1.3 CALM 0 0 0 0 1016.6 1016.5 2.0
19/03:30am 10.8 10.3 8.0 83 1.4 CALM 0 0 0 0 1016.3 1016.2 2.0
19/03:00am 10.5 10.0 7.7 83 1.3 CALM 0 0 0 0 1016.4 1016.3 2.0
19/02:30am 9.9 9.3 7.5 85 1.1 CALM 0 0 0 0 1016.3 1016.2 2.0
19/02:00am 9.5 7.7 7.3 86 1.0 NNW 6 7 3 4 1016.4 1016.3 2.0
19/01:30am 8.7 6.7 7.2 90 0.7 N 7 9 4 5 1016.4 1016.3 2.0
19/01:00am 8.8 7.6 6.6 86 1.0 WNW 2 7 1 4 1016.5 1016.4 2.0
19/12:30am 8.5 7.6 6.0 84 1.1 CALM 0 7 0 4 1016.4 1016.3 2.0
19/12:00am 8.7 6.5 6.0 83 1.2 W 7 13 4 7 1016.4 1016.3 2.0
 
Date/Time
CDT
Temp
°C
App
Temp
°C
Dew
Point
Rel
Hum
%
Delta-T
°C
Wind Press
QNH
hPa
Press
MSL
hPa
Rain
since 9 am
mm
Dir
 
Spd
km/h
Gust
km/h
Spd
kts
Gust
kts
18/11:30pm 8.6 6.5 5.7 82 1.3 SW 6 7 3 4 1016.3 1016.2 2.0
18/11:00pm 8.9 7.6 6.0 82 1.3 SW 2 7 1 4 1015.8 1015.7 2.0
18/10:30pm 7.9 4.3 5.0 82 1.3 SW 13 17 7 9 1015.8 1015.7 2.0
18/10:00pm 8.5 4.2 5.4 81 1.4 WSW 17 17 9 9 1015.6 1015.5 2.0
18/09:30pm 10.1 5.9 5.7 74 2.0 SW 17 19 9 10 1015.2 1015.1 2.0
18/09:00pm 12.1 7.9 5.7 65 3.0 SW 17 20 9 11 1014.8 1014.7 2.0
18/08:30pm 13.5 8.8 5.9 60 3.6 SW 20 24 11 13 1014.6 1014.5 2.0
18/08:00pm 15.5 9.6 6.0 53 4.6 SW 26 35 14 19 1014.2 1014.1 2.0
18/07:30pm 16.5 9.5 5.8 49 5.2 SW 32 39 17 21 1013.7 1013.6 2.0
18/07:00pm 17.2 10.2 5.8 47 5.5 SSW 32 44 17 24 1012.9 1012.8 2.0
18/06:30pm 17.2 10.2 6.1 48 5.4 SW 32 43 17 23 1012.5 1012.4 2.0
18/06:00pm 19.2 11.3 6.3 43 6.4 SW 37 46 20 25 1011.9 1011.8 2.0
18/05:30pm 19.4 11.4 4.0 36 7.4 SW 35 50 19 27 1011.6 1011.5 2.0
18/05:00pm 19.8 11.2 2.6 32 8.0 SW 37 54 20 29 1011.2 1011.1 2.0
18/04:30pm 21.3 12.7 4.8 34 8.1 WSW 39 54 21 29 1011.0 1010.9 2.0
18/04:09pm 19.9 10.7 3.6 34 7.7 WSW 41 61 22 33 1010.8 1010.7 2.0
18/04:00pm 19.6 10.4 3.7 35 7.6 WSW 41 57 22 31 1010.9 1010.8 2.0
18/03:41pm 21.6 12.1 3.8 31 8.6 WSW 43 61 23 33 1010.7 1010.6 2.0
18/03:30pm 21.2 12.0 3.4 31 8.5 SW 41 56 22 30 1010.5 1010.4 2.0
18/03:25pm 19.9 11.3 4.8 37 7.3 SW 39 52 21 28 1010.5 1010.4 2.0
18/03:20pm 21.3 13.1 6.4 38 7.5 WSW 39 50 21 27 1010.5 1010.4 2.0
18/03:00pm 20.2 12.0 6.5 41 6.9 SW 39 54 21 29 1010.2 1010.1 2.0
18/02:30pm 19.9 11.5 5.5 39 7.1 WSW 39 57 21 31 1009.9 1009.8 2.0
18/02:00pm 19.3 10.9 8.9 51 5.5 WSW 43 61 23 33 1009.7 1009.6 2.0
18/01:56pm 20.1 12.7 9.7 51 5.6 WSW 39 59 21 32 1009.6 1009.5 2.0
18/01:30pm 18.4 12.6 11.5 64 3.8 SW 33 46 18 25 1009.7 1009.6 2.0
18/01:00pm 16.8 10.3 10.4 66 3.4 WSW 35 44 19 24 1009.5 1009.4 2.0
18/12:30pm 16.0 12.9 14.5 91 0.9 WSW 24 32 13 17 1009.4 1009.3 2.0
18/12:17pm 14.3 9.3 11.1 81 1.7 WSW 28 56 15 30 1009.3 1009.2 1.4
18/12:16pm 15.2 10.9 12.1 82 1.7 WSW 26 56 14 30 1009.3 1009.2 0.8
18/12:00pm 16.9 13.1 14.7 87 1.3 WSW 28 33 15 18 1009.1 1009.0 0.4
18/11:30am 14.6 7.4 13.1 91 0.8 WSW 43 56 23 30 1008.8 1008.7 0.4
18/11:24am 14.6 6.4 11.6 82 1.6 WSW 46 59 25 32 1008.8 1008.7 0.0
18/11:00am 19.5 12.5 13.7 69 3.3 W 43 63 23 34 1007.9 1007.8 0.0
18/10:43am 18.7 10.1 10.3 58 4.5 W 46 65 25 35 1007.8 1007.7 0.0
18/10:30am 20.7 12.1 9.0 47 6.2 WNW 44 59 24 32 1007.7 1007.6 0.0
18/10:11am 19.3 11.2 10.0 55 5.0 W 43 61 23 33 1007.9 1007.8 0.0
18/10:00am 18.0 12.3 11.3 65 3.7 WNW 32 52 17 28 1008.0 1007.9 0.0
18/09:59am 18.1 12.7 11.0 63 3.8 WNW 30 52 16 28 1008.0 1007.9 0.0
18/09:30am 17.5 14.9 13.8 79 2.1 NW 20 28 11 15 1008.0 1007.9 0.0
18/09:00am 14.4 11.3 11.7 84 1.5 NW 19 24 10 13 1008.1 1008.0 0.4
18/08:30am 15.5 11.5 10.3 71 2.7 NW 22 28 12 15 1008.0 1007.9 0.0
18/08:00am 15.2 11.0 9.6 69 2.9 NW 22 30 12 16 1007.5 1007.4 0.0
18/07:30am 13.5 9.4 8.8 73 2.4 NW 20 24 11 13 1007.4 1007.3 0.0
18/07:00am 13.1 9.1 8.4 73 2.3 NNW 19 26 10 14 1007.0 1006.9 0.0
18/06:30am 11.8 8.0 7.5 75 2.1 NNW 17 20 9 11 1006.9 1006.8 0.0
18/06:00am 11.0 7.5 7.1 77 1.9 NNW 15 20 8 11 1006.8 1006.7 0.0
18/05:30am 10.7 7.2 7.0 78 1.8 NNW 15 19 8 10 1006.5 1006.4 0.0
18/05:00am 10.0 6.3 6.5 79 1.6 NNW 15 19 8 10 1006.4 1006.3 0.0
18/04:30am 8.8 5.4 5.7 81 1.4 N 13 17 7 9 1006.3 1006.2 0.0
18/04:00am 9.3 5.9 5.7 78 1.6 NNW 13 17 7 9 1006.5 1006.4 0.0
18/03:30am 9.8 6.8 5.8 76 1.8 NNW 11 15 6 8 1006.3 1006.2 0.0
18/03:00am 9.5 6.9 5.9 78 1.7 NNW 9 13 5 7 1006.2 1006.1 0.0
18/02:30am 8.1 5.5 4.1 76 1.7 N 7 7 4 4 1006.5 1006.4 0.0
18/02:00am 10.5 7.9 5.9 73 2.1 NNW 9 13 5 7 1006.9 1006.8 0.0
18/01:30am 11.0 8.4 6.2 72 2.3 NNW 9 13 5 7 1007.1 1007.0 0.0
18/01:00am 10.8 8.8 6.9 77 1.9 N 7 7 4 4 1007.3 1007.2 0.0
18/12:30am 10.2 8.1 6.0 75 2.0 NNW 6 7 3 4 1007.6 1007.5 0.0
18/12:00am 11.2 9.3 6.7 74 2.1 NNW 6 7 3 4 1007.8 1007.7 0.0
 
Date/Time
CDT
Temp
°C
App
Temp
°C
Dew
Point
Rel
Hum
%
Delta-T
°C
Wind Press
QNH
hPa
Press
MSL
hPa
Rain
since 9 am
mm
Dir
 
Spd
km/h
Gust
km/h
Spd
kts
Gust
kts
17/11:30pm 10.9 9.9 5.4 69 2.5 CALM 0 2 0 1 1007.8 1007.7 0.0
17/11:00pm 12.7 11.8 6.1 64 3.1 CALM 0 0 0 0 1007.8 1007.7 0.0
17/10:30pm 11.7 10.6 5.3 65 3.0 CALM 0 0 0 0 1007.9 1007.8 0.0
17/10:00pm 11.2 7.5 4.4 63 3.1 SW 13 15 7 8 1007.9 1007.8 0.0
17/09:30pm 12.4 8.7 4.6 59 3.6 WSW 13 19 7 10 1007.8 1007.7 0.0
17/09:00pm 13.1 9.2 3.5 52 4.3 WSW 13 15 7 8 1007.7 1007.6 0.0
17/08:30pm 15.4 11.6 3.9 46 5.3 WSW 13 17 7 9 1007.9 1007.8 0.0
17/08:00pm 18.2 14.0 3.7 38 6.8 WSW 15 19 8 10 1007.8 1007.7 0.0
17/07:30pm 19.4 14.2 2.7 33 7.8 SW 19 24 10 13 1007.7 1007.6 0.0
17/07:00pm 20.1 15.7 2.5 31 8.2 WSW 15 24 8 13 1007.4 1007.3 0.0
17/06:30pm 20.8 15.9 2.1 29 8.7 WSW 17 32 9 17 1007.3 1007.2 0.0
17/06:00pm 20.9 16.0 1.7 28 8.9 WSW 17 30 9 16 1007.0 1006.9 0.0
17/05:30pm 21.3 15.8 2.1 28 9.0 W 20 35 11 19 1007.1 1007.0 0.0
17/05:00pm 21.9 16.4 2.1 27 9.3 SW 20 35 11 19 1007.2 1007.1 0.0
17/04:30pm 22.1 16.4 2.8 28 9.2 SW 22 37 12 20 1007.5 1007.4 0.0
17/04:00pm 21.8 15.9 2.0 27 9.2 WSW 22 33 12 18 1007.6 1007.5 0.0
17/03:30pm 23.2 17.7 2.1 25 10.0 W 20 32 11 17 1007.9 1007.8 0.0
17/03:00pm 22.0 15.2 1.1 25 9.6 W 26 43 14 23 1008.0 1007.9 0.0
17/02:50pm 21.8 14.7 1.5 26 9.4 WNW 28 46 15 25 1008.0 1007.9 0.0
17/02:30pm 22.0 15.6 1.1 25 9.6 W 24 35 13 19 1008.1 1008.0 0.0
17/02:00pm 21.9 15.6 1.5 26 9.4 WNW 24 41 13 22 1008.3 1008.2 0.0
17/01:30pm 22.0 16.3 2.7 28 9.2 WNW 22 32 12 17 1008.5 1008.4 0.0
17/01:00pm 20.3 15.2 3.1 32 8.1 W 19 33 10 18 1009.0 1008.9 0.0
17/12:30pm 19.3 14.4 4.3 37 7.2 W 19 24 10 13 1009.3 1009.2 0.0
17/12:00pm 18.5 13.9 3.9 38 6.9 W 17 24 9 13 1009.6 1009.5 0.0
17/11:30am 19.0 13.1 4.0 37 7.1 W 24 30 13 16 1009.8 1009.7 0.0
17/11:00am 18.3 14.3 4.8 41 6.5 W 15 24 8 13 1009.9 1009.8 0.0
17/10:30am 17.2 13.4 3.8 41 6.3 W 13 20 7 11 1010.1 1010.0 0.0
17/10:00am 16.9 13.2 4.3 43 5.9 W 13 20 7 11 1010.3 1010.2 0.0
17/09:30am 16.9 13.0 5.5 47 5.5 W 15 26 8 14 1010.3 1010.2 0.0
17/09:00am 16.0 12.7 6.4 53 4.7 W 13 19 7 10 1010.7 1010.6 0.2
17/08:30am 15.4 13.0 6.9 57 4.2 NW 9 13 5 7 1010.8 1010.7 0.2
17/08:00am 13.8 11.5 7.3 65 3.2 NNW 9 13 5 7 1010.5 1010.4 0.2
17/07:30am 12.1 9.4 7.2 72 2.4 NNW 11 13 6 7 1010.4 1010.3 0.2
17/07:00am 10.3 7.5 6.8 79 1.7 NNW 11 15 6 8 1010.2 1010.1 0.2
17/06:30am 8.7 5.7 6.2 84 1.2 N 11 13 6 7 1009.7 1009.6 0.2
17/06:00am 7.7 5.0 5.5 86 1.0 NNW 9 11 5 6 1009.4 1009.3 0.2
17/05:30am 7.8 4.3 5.4 85 1.1 NNW 13 15 7 8 1008.9 1008.8 0.2
17/05:00am 8.1 5.0 5.7 85 1.1 NNW 11 15 6 8 1008.5 1008.4 0.2
17/04:30am 8.2 5.2 6.0 86 1.0 NNW 11 13 6 7 1008.1 1008.0 0.2
17/04:00am 7.8 5.5 5.6 86 1.0 N 7 9 4 5 1007.8 1007.7 0.2
17/03:30am 8.1 5.9 6.2 88 0.9 N 7 7 4 4 1007.8 1007.7 0.2
17/03:00am 7.7 5.4 4.8 82 1.3 N 6 7 3 4 1007.7 1007.6 0.2
17/02:30am 8.6 6.3 5.7 82 1.3 N 7 9 4 5 1007.9 1007.8 0.2
17/02:00am 7.9 5.5 5.4 84 1.1 N 7 9 4 5 1007.8 1007.7 0.2
17/01:30am 7.9 5.6 5.5 85 1.1 N 7 9 4 5 1008.0 1007.9 0.2
17/01:00am 7.0 3.2 4.1 82 1.2 W 13 13 7 7 1008.0 1007.9 0.2
17/12:30am 8.1 4.5 4.9 80 1.4 WNW 13 13 7 7 1008.0 1007.9 0.2
17/12:00am 9.1 6.4 5.8 80 1.5 NW 9 11 5 6 1008.2 1008.1 0.2
 
Date/Time
CDT
Temp
°C
App
Temp
°C
Dew
Point
Rel
Hum
%
Delta-T
°C
Wind Press
QNH
hPa
Press
MSL
hPa
Rain
since 9 am
mm
Dir
 
Spd
km/h
Gust
km/h
Spd
kts
Gust
kts
16/11:30pm 8.8 5.7 5.7 81 1.4 W 11 13 6 7 1008.2 1008.1 0.2
16/11:00pm 8.6 5.0 5.2 79 1.5 W 13 13 7 7 1008.0 1007.9 0.2
16/10:30pm 9.5 5.7 5.7 77 1.7 WSW 15 17 8 9 1007.9 1007.8 0.2
16/10:00pm 10.3 6.4 5.5 72 2.2 SW 15 19 8 10 1007.7 1007.6 0.2
16/09:30pm 12.3 7.8 5.9 65 3.0 SW 19 22 10 12 1007.5 1007.4 0.2
16/09:00pm 13.4 8.6 5.6 59 3.7 SW 20 26 11 14 1006.9 1006.8 0.2
16/08:30pm 14.4 7.0 5.2 54 4.3 SW 33 43 18 23 1006.4 1006.3 0.2
16/08:00pm 15.1 8.2 4.8 50 4.8 SW 30 37 16 20 1005.9 1005.8 0.2
16/07:30pm 16.1 7.5 4.8 47 5.4 SW 39 57 21 31 1005.3 1005.2 0.2
16/07:27pm 16.3 8.5 4.7 46 5.5 SW 35 57 19 31 1005.2 1005.1 0.2
16/07:00pm 16.6 7.9 5.9 49 5.2 SW 41 48 22 26 1004.8 1004.7 0.2
16/06:30pm 17.4 8.7 6.0 47 5.6 SW 41 56 22 30 1004.2 1004.1 0.2
16/06:00pm 18.1 8.9 5.3 43 6.2 WSW 43 54 23 29 1003.6 1003.5 0.2
16/05:30pm 18.7 7.6 2.5 34 7.5 WSW 50 61 27 33 1003.3 1003.2 0.2
16/05:00pm 19.0 8.6 4.0 37 7.1 WSW 48 67 26 36 1003.0 1002.9 0.2
16/04:30pm 19.3 8.5 4.3 37 7.2 WSW 50 65 27 35 1002.6 1002.5 0.2
16/04:00pm 19.5 8.8 4.4 37 7.3 W 50 65 27 35 1002.1 1002.0 0.2
16/03:30pm 16.7 9.9 14.2 85 1.4 WSW 43 67 23 36 1002.0 1001.9 0.2
16/03:27pm 15.5 7.1 12.4 82 1.7 WSW 48 67 26 36 1002.1 1002.0 0.2
16/03:25pm 15.0 5.8 11.0 77 2.1 WSW 50 67 27 36 1002.1 1002.0 0.0
16/03:14pm 20.0 9.7 8.0 46 6.2 WSW 52 65 28 35 1001.5 1001.3 0.0
16/03:13pm 20.4 9.6 7.7 44 6.6 WSW 54 67 29 36 1001.5 1001.3 0.0
16/03:00pm 17.5 4.8 7.0 50 5.3 WSW 63 78 34 42 1001.4 1001.2 0.0
16/02:37pm 21.2 10.3 7.4 41 7.1 WSW 54 72 29 39 1000.6 1000.4 0.0
16/02:30pm 20.6 9.7 7.2 42 6.9 W 54 69 29 37 1000.5 1000.3 0.0
16/02:00pm 19.3 10.2 9.8 54 5.1 W 48 69 26 37 1000.2 1000.0 0.0
16/01:41pm 19.5 11.7 11.0 58 4.6 W 43 61 23 33 1000.2 1000.0 0.0
16/01:30pm 18.2 11.4 12.0 67 3.4 W 39 50 21 27 1000.2 1000.0 0.0
16/01:00pm 14.7 6.9 11.1 79 1.9 W 43 56 23 30 1000.2 1000.0 0.0
16/12:30pm 18.5 8.9 10.8 61 4.2 WNW 52 80 28 43 999.0 998.8 0.0
16/12:15pm 21.0 12.8 9.6 48 6.1 WNW 43 65 23 35 998.4 998.2 0.0
16/12:00pm 21.9 14.2 8.8 43 7.0 WNW 39 56 21 30 998.1 997.9 0.0
16/11:30am 22.3 14.5 8.4 41 7.4 WNW 39 52 21 28 998.1 997.9 0.0
16/11:00am 21.8 15.2 10.0 47 6.4 WNW 35 50 19 27 998.3 998.1 0.0
16/10:30am 21.4 15.5 11.1 52 5.7 WNW 33 48 18 26 998.8 998.6 0.0
16/10:12am 20.1 13.6 10.5 54 5.2 WNW 35 54 19 29 999.0 998.8 0.0
16/10:00am 19.8 13.9 11.0 57 4.8 WNW 33 46 18 25 999.2 999.0 0.0
16/09:30am 18.6 14.4 11.2 62 4.1 NW 24 35 13 19 999.2 999.0 0.0
16/09:00am 17.1 12.8 10.7 66 3.5 NW 24 32 13 17 999.7 999.5 0.0
16/08:30am 16.3 12.7 10.4 68 3.1 NW 20 28 11 15 999.7 999.5 0.0

Other Formats:

Comma delimited format used in spreadsheet applications
http://www.bom.gov.au/fwo/IDS60801/IDS60801.94820.axf

JavaScript Object Notation format (JSON) in row-major order
http://www.bom.gov.au/fwo/IDS60801/IDS60801.94820.json